Terminal Aerodrome Forecast
Issued by NWS Jackson, MS

Home | Current Version | Previous Version | Text Only | Print | Product List | Glossary On
Versions: 1 2 3 4 5 6 7 8 9 10 11 12 13 14 15 16 17 18
000
FTUS44 KJAN 041100 RRA
TAFMEI
TAF
KMEI 041147Z 0412/0512 19004KT P6SM VCSH OVC006
     FM041700 20013G19KT P6SM OVC025
     FM042100 20012KT P6SM OVC040
     FM050100 19008KT P6SM OVC015
     FM050300 35009KT 6SM BR VCSH OVC007=

USA.gov is the U.S. government's official web portal to all federal, state and local government web resources and services.